Time;durP1;ratioP1;P1;durP2;ratioP2;P2;SDS_P1;SDS_P2;PMS_P1;PMS_P2;Temp;Humidity;BMP_temperature;BMP_pressure;BME280_temperature;BME280_humidity;BME280_pressure;Samples;Min_cycle;Max_cycle;Signal;HPM_P1;HPM_P2
2022/01/03 00:00:25;;;;;;;;;;;12.10;98.20;;;;;;5031931;28;19909;-72
2022/01/03 00:02:58;;;;;;;;;;;12.10;98.30;;;;;;5033227;28;19913;-74
2022/01/03 00:05:24;;;;;;;;;;;12.10;98.10;;;;;;5032673;28;19917;-73
2022/01/03 00:07:49;;;;;;;;;;;12.10;98.20;;;;;;5033801;28;19963;-72
2022/01/03 00:10:16;;;;;;;;;;;12.10;98.40;;;;;;5019733;28;19953;-73
2022/01/03 00:12:42;;;;;;;;;;;12.10;98.50;;;;;;5013673;28;19914;-72
2022/01/03 00:15:08;;;;;;;;;;;12.10;98.60;;;;;;5014079;28;19916;-74
2022/01/03 00:17:34;;;;;;;;;;;12.10;98.70;;;;;;5013676;28;20387;-73
2022/01/03 00:20:00;;;;;;;;;;;12.20;98.60;;;;;;5029400;28;20055;-72
2022/01/03 00:22:34;;;;;;;;;;;12.20;98.70;;;;;;5033329;28;20004;-73
2022/01/03 00:25:04;;;;;;;;;;;12.30;98.70;;;;;;5033164;28;19921;-73
2022/01/03 00:27:50;;;;;;;;;;;12.30;98.70;;;;;;5033214;28;19913;-73
2022/01/03 00:30:19;;;;;;;;;;;12.30;98.70;;;;;;5031468;28;19912;-74
2022/01/03 00:32:46;;;;;;;;;;;12.30;98.90;;;;;;5033220;28;19968;-74
2022/01/03 00:35:15;;;;;;;;;;;12.30;98.80;;;;;;5031965;28;19913;-74
2022/01/03 00:37:42;;;;;;;;;;;12.30;98.70;;;;;;5031195;28;19925;-73
2022/01/03 00:40:08;;;;;;;;;;;12.30;98.80;;;;;;5032889;28;20347;-73
2022/01/03 00:42:33;;;;;;;;;;;12.40;98.60;;;;;;5031973;28;19909;-73
2022/01/03 00:45:00;;;;;;;;;;;12.30;98.50;;;;;;5031838;28;19917;-72
2022/01/03 00:47:28;;;;;;;;;;;12.40;98.40;;;;;;5029952;28;19918;-73
2022/01/03 00:49:54;;;;;;;;;;;12.40;98.20;;;;;;5027723;28;19960;-73
2022/01/03 00:52:19;;;;;;;;;;;12.40;98.00;;;;;;5012899;28;19928;-73
2022/01/03 00:54:45;;;;;;;;;;;12.40;98.00;;;;;;5012680;28;19914;-73
2022/01/03 00:57:19;;;;;;;;;;;12.40;97.80;;;;;;5012658;28;19909;-72
2022/01/03 00:59:46;;;;;;;;;;;12.40;97.90;;;;;;5012950;28;19917;-73
2022/01/03 01:02:13;;;;;;;;;;;12.40;97.90;;;;;;5012765;28;19925;-74
2022/01/03 01:04:43;;;;;;;;;;;12.40;97.80;;;;;;5012761;28;19917;-73
2022/01/03 01:07:09;;;;;;;;;;;12.40;97.70;;;;;;5012761;28;20425;-73
2022/01/03 01:09:34;;;;;;;;;;;12.40;97.90;;;;;;5012692;28;19918;-74
2022/01/03 01:12:00;;;;;;;;;;;12.30;98.20;;;;;;5012999;28;20047;-72
2022/01/03 01:14:26;;;;;;;;;;;12.50;98.80;;;;;;5025084;28;19979;-74
2022/01/03 01:16:52;;;;;;;;;;;12.30;99.20;;;;;;5011681;28;19914;-73
2022/01/03 01:19:18;;;;;;;;;;;12.30;99.60;;;;;;5012424;28;19918;-74
2022/01/03 01:21:44;;;;;;;;;;;12.20;99.70;;;;;;5011305;28;19914;-74
2022/01/03 01:24:10;;;;;;;;;;;12.10;99.90;;;;;;5012834;28;20122;-72
2022/01/03 01:29:19;;;;;;;;;;;12.00;99.90;;;;;;5032092;28;19936;-72
2022/01/03 01:31:49;;;;;;;;;;;12.00;99.90;;;;;;5032209;28;19913;-73
2022/01/03 01:34:17;;;;;;;;;;;11.90;99.90;;;;;;5032416;28;19932;-74
2022/01/03 01:36:45;;;;;;;;;;;11.90;99.90;;;;;;5028823;28;19956;-73
2022/01/03 01:39:11;;;;;;;;;;;11.70;99.90;;;;;;5029291;28;19931;-73
2022/01/03 01:41:40;;;;;;;;;;;11.60;99.90;;;;;;5030910;28;20470;-75
2022/01/03 01:44:07;;;;;;;;;;;11.40;99.90;;;;;;5031874;28;19928;-75
2022/01/03 01:46:33;;;;;;;;;;;11.50;99.90;;;;;;5031149;28;19917;-75
2022/01/03 01:49:01;;;;;;;;;;;11.30;99.90;;;;;;5031790;28;19913;-74
2022/01/03 01:51:26;;;;;;;;;;;11.30;99.90;;;;;;5030834;28;20389;-73
2022/01/03 01:53:53;;;;;;;;;;;11.30;99.90;;;;;;5032224;28;19909;-72
2022/01/03 01:56:26;;;;;;;;;;;11.20;99.90;;;;;;5030449;28;19913;-73
2022/01/03 01:58:54;;;;;;;;;;;11.20;99.90;;;;;;5030596;28;20407;-73
2022/01/03 02:01:20;;;;;;;;;;;11.10;99.90;;;;;;5031764;28;19941;-75
2022/01/03 02:03:47;;;;;;;;;;;11.00;99.90;;;;;;5031559;28;19924;-74
2022/01/03 02:06:33;;;;;;;;;;;11.10;99.90;;;;;;5031427;28;19955;-74
2022/01/03 02:09:09;;;;;;;;;;;11.10;99.90;;;;;;5031656;28;19917;-74
2022/01/03 02:11:47;;;;;;;;;;;11.00;99.90;;;;;;5031702;28;19944;-74
2022/01/03 02:14:12;;;;;;;;;;;11.00;99.90;;;;;;5031819;28;19917;-74
2022/01/03 02:16:38;;;;;;;;;;;11.00;99.90;;;;;;5017547;28;19918;-74
2022/01/03 02:19:03;;;;;;;;;;;11.10;99.90;;;;;;5017166;28;19936;-73
2022/01/03 02:21:29;;;;;;;;;;;11.00;99.90;;;;;;5011986;28;20406;-73
2022/01/03 02:23:54;;;;;;;;;;;11.00;99.90;;;;;;5012306;28;19913;-73
2022/01/03 02:26:20;;;;;;;;;;;11.10;99.90;;;;;;5011999;28;19929;-74
2022/01/03 02:28:45;;;;;;;;;;;11.10;99.90;;;;;;5011800;28;20395;-73
2022/01/03 02:31:11;;;;;;;;;;;11.10;99.90;;;;;;5010724;28;19913;-72
2022/01/03 02:33:36;;;;;;;;;;;11.10;99.90;;;;;;5011440;28;19922;-73
2022/01/03 02:36:03;;;;;;;;;;;11.10;99.90;;;;;;5010811;28;19964;-73
2022/01/03 02:38:39;;;;;;;;;;;11.00;99.90;;;;;;5027290;28;20282;-73
2022/01/03 02:41:04;;;;;;;;;;;11.10;99.90;;;;;;5026811;28;19921;-73
2022/01/03 02:43:30;;;;;;;;;;;11.10;99.90;;;;;;5021337;28;19922;-73
2022/01/03 02:45:55;;;;;;;;;;;11.10;99.90;;;;;;5011515;28;19928;-74
2022/01/03 02:48:22;;;;;;;;;;;11.00;99.90;;;;;;5011508;28;19933;-73
2022/01/03 02:50:48;;;;;;;;;;;11.00;99.90;;;;;;5010924;28;19917;-73
2022/01/03 02:53:13;;;;;;;;;;;11.10;99.30;;;;;;5011627;28;19914;-73
2022/01/03 02:55:39;;;;;;;;;;;11.10;99.30;;;;;;5011330;28;19917;-73
2022/01/03 02:58:07;;;;;;;;;;;11.20;99.20;;;;;;5010097;28;20351;-73
2022/01/03 03:00:34;;;;;;;;;;;11.10;99.10;;;;;;5011590;28;19979;-73
2022/01/03 03:03:00;;;;;;;;;;;11.20;99.30;;;;;;5011816;28;20119;-73
2022/01/03 03:05:25;;;;;;;;;;;11.20;99.40;;;;;;5011460;28;19925;-72
2022/01/03 03:07:53;;;;;;;;;;;11.30;99.10;;;;;;5014023;28;20306;-73
2022/01/03 03:10:19;;;;;;;;;;;11.30;99.00;;;;;;5015052;28;20282;-72
2022/01/03 03:12:48;;;;;;;;;;;11.40;99.10;;;;;;5013905;28;19990;-72
2022/01/03 03:15:14;;;;;;;;;;;11.30;99.10;;;;;;5015241;28;19909;-74
2022/01/03 03:17:41;;;;;;;;;;;11.30;99.20;;;;;;5014770;28;20426;-73
2022/01/03 03:20:07;;;;;;;;;;;11.30;99.30;;;;;;5014819;28;19913;-74
2022/01/03 03:22:32;;;;;;;;;;;11.30;99.50;;;;;;5028942;28;19917;-73
2022/01/03 03:25:11;;;;;;;;;;;11.40;99.60;;;;;;5034340;28;20022;-73
2022/01/03 03:27:43;;;;;;;;;;;11.40;99.70;;;;;;5034345;28;19941;-73
2022/01/03 03:30:20;;;;;;;;;;;11.20;99.90;;;;;;5033750;28;19920;-73
2022/01/03 03:32:46;;;;;;;;;;;11.20;99.90;;;;;;5032363;28;20530;-73
2022/01/03 03:35:11;;;;;;;;;;;11.30;99.90;;;;;;5034276;28;19920;-73
2022/01/03 03:37:37;;;;;;;;;;;11.30;99.90;;;;;;5034308;28;19913;-73
2022/01/03 03:40:03;;;;;;;;;;;11.30;99.90;;;;;;5034183;28;20252;-73
2022/01/03 03:42:28;;;;;;;;;;;11.30;99.90;;;;;;5033201;28;19917;-74
2022/01/03 03:44:54;;;;;;;;;;;11.30;99.90;;;;;;5032669;28;19909;-73
2022/01/03 03:47:19;;;;;;;;;;;11.30;99.90;;;;;;5014547;28;19922;-74
2022/01/03 03:49:45;;;;;;;;;;;11.30;99.90;;;;;;5014189;28;20306;-74
2022/01/03 03:52:10;;;;;;;;;;;11.30;99.90;;;;;;5014495;28;20011;-74
2022/01/03 03:54:36;;;;;;;;;;;11.40;99.90;;;;;;5014158;28;20402;-74
2022/01/03 03:57:02;;;;;;;;;;;11.40;99.90;;;;;;5014665;28;19913;-73
2022/01/03 03:59:28;;;;;;;;;;;11.40;99.90;;;;;;5012989;28;19914;-74
2022/01/03 04:01:54;;;;;;;;;;;11.30;99.80;;;;;;5013934;28;19924;-75
2022/01/03 04:04:20;;;;;;;;;;;11.30;99.60;;;;;;5013715;28;20418;-75
2022/01/03 04:06:45;;;;;;;;;;;11.30;99.60;;;;;;5022694;28;19921;-75
2022/01/03 04:09:11;;;;;;;;;;;11.40;99.60;;;;;;5014223;28;19960;-73
2022/01/03 04:11:36;;;;;;;;;;;11.40;99.40;;;;;;5013945;28;19913;-74
2022/01/03 04:14:02;;;;;;;;;;;11.40;99.40;;;;;;5012641;28;20344;-73
2022/01/03 04:16:28;;;;;;;;;;;11.40;99.00;;;;;;5013536;28;19913;-73
2022/01/03 04:18:53;;;;;;;;;;;11.40;99.10;;;;;;5012979;28;19972;-74
2022/01/03 04:21:19;;;;;;;;;;;11.40;98.90;;;;;;5013895;28;19955;-74
2022/01/03 04:23:45;;;;;;;;;;;11.40;98.90;;;;;;5014007;28;19929;-73
2022/01/03 04:26:11;;;;;;;;;;;11.50;98.90;;;;;;5013565;28;19917;-73
2022/01/03 04:28:37;;;;;;;;;;;11.40;98.80;;;;;;5013497;28;19971;-73
2022/01/03 04:31:02;;;;;;;;;;;11.40;98.60;;;;;;5012619;28;20004;-74
2022/01/03 04:33:28;;;;;;;;;;;11.40;98.60;;;;;;5013007;28;19928;-73
2022/01/03 04:35:53;;;;;;;;;;;11.50;98.60;;;;;;5013864;28;20250;-73
2022/01/03 04:38:19;;;;;;;;;;;11.50;98.60;;;;;;5024402;28;19928;-73
2022/01/03 04:40:45;;;;;;;;;;;11.40;98.60;;;;;;5032988;28;19917;-74
2022/01/03 04:43:10;;;;;;;;;;;11.50;98.70;;;;;;5032983;28;20011;-74
2022/01/03 04:45:35;;;;;;;;;;;11.40;98.50;;;;;;5031921;28;20008;-75
2022/01/03 04:48:01;;;;;;;;;;;11.40;98.50;;;;;;5032550;28;20255;-73
2022/01/03 04:50:27;;;;;;;;;;;11.50;98.40;;;;;;5032911;28;19948;-75
2022/01/03 04:52:52;;;;;;;;;;;11.50;98.40;;;;;;5032595;28;19913;-74
2022/01/03 04:55:17;;;;;;;;;;;11.50;98.40;;;;;;5032894;28;19913;-74
2022/01/03 04:57:43;;;;;;;;;;;11.50;98.30;;;;;;5031682;28;19917;-74
2022/01/03 05:00:09;;;;;;;;;;;11.50;98.20;;;;;;5033279;28;19913;-74
2022/01/03 05:02:37;;;;;;;;;;;11.60;98.50;;;;;;5032309;28;19917;-74
2022/01/03 05:05:03;;;;;;;;;;;11.50;98.10;;;;;;5032201;28;19929;-73
2022/01/03 05:07:28;;;;;;;;;;;11.50;98.10;;;;;;5025617;28;19925;-74
2022/01/03 05:09:53;;;;;;;;;;;11.50;98.00;;;;;;5019414;28;19917;-74
2022/01/03 05:12:19;;;;;;;;;;;11.50;98.10;;;;;;5031823;28;19917;-74
2022/01/03 05:14:44;;;;;;;;;;;11.60;98.30;;;;;;5032415;28;20024;-74
2022/01/03 05:17:10;;;;;;;;;;;11.60;98.40;;;;;;5032637;28;20345;-73
2022/01/03 05:19:36;;;;;;;;;;;11.50;98.30;;;;;;5031613;28;19940;-74
2022/01/03 05:22:01;;;;;;;;;;;11.50;98.40;;;;;;5032206;28;19913;-74
2022/01/03 05:24:27;;;;;;;;;;;11.50;98.50;;;;;;5014827;28;19955;-73
2022/01/03 05:26:52;;;;;;;;;;;11.60;98.50;;;;;;5012883;28;19910;-72
2022/01/03 05:29:18;;;;;;;;;;;11.50;98.50;;;;;;5010418;28;19975;-74
2022/01/03 05:31:43;;;;;;;;;;;11.50;98.40;;;;;;5011975;28;19924;-73
2022/01/03 05:34:09;;;;;;;;;;;11.40;98.40;;;;;;5012378;28;19930;-74
2022/01/03 05:36:34;;;;;;;;;;;11.40;98.50;;;;;;5012211;28;20233;-74
2022/01/03 05:39:00;;;;;;;;;;;11.40;98.60;;;;;;5012851;28;19928;-74
2022/01/03 05:41:26;;;;;;;;;;;11.40;98.90;;;;;;5026216;28;20370;-74
2022/01/03 05:43:52;;;;;;;;;;;11.40;99.30;;;;;;5032102;28;19917;-74
2022/01/03 05:46:18;;;;;;;;;;;11.40;99.60;;;;;;5031195;28;19923;-73
2022/01/03 05:48:43;;;;;;;;;;;11.30;99.70;;;;;;5030800;28;19913;-73
2022/01/03 05:51:09;;;;;;;;;;;11.30;99.80;;;;;;5027051;28;19910;-74
2022/01/03 05:53:34;;;;;;;;;;;11.30;99.80;;;;;;5010877;28;20332;-74
2022/01/03 05:56:00;;;;;;;;;;;11.40;99.50;;;;;;5021787;28;19996;-75
2022/01/03 05:58:26;;;;;;;;;;;11.40;99.40;;;;;;5031973;28;20405;-73
2022/01/03 06:00:51;;;;;;;;;;;11.40;99.30;;;;;;5030427;28;19913;-73
2022/01/03 06:03:20;;;;;;;;;;;11.40;99.20;;;;;;5026491;28;20004;-73
2022/01/03 06:08:21;;;;;;;;;;;11.50;98.80;;;;;;5011924;28;20336;-74
2022/01/03 06:10:46;;;;;;;;;;;11.40;98.50;;;;;;5012152;28;19924;-73
2022/01/03 06:13:12;;;;;;;;;;;11.40;98.60;;;;;;5014924;28;19913;-73
2022/01/03 06:15:38;;;;;;;;;;;11.40;98.50;;;;;;5028809;28;19952;-74
2022/01/03 06:18:04;;;;;;;;;;;11.40;98.80;;;;;;5022350;28;19909;-74
2022/01/03 06:20:31;;;;;;;;;;;11.40;98.90;;;;;;5029777;28;19963;-72
2022/01/03 06:22:56;;;;;;;;;;;11.40;99.00;;;;;;5021384;28;19925;-74
2022/01/03 06:25:22;;;;;;;;;;;11.40;99.30;;;;;;5011710;28;19926;-73
2022/01/03 06:27:47;;;;;;;;;;;11.40;99.20;;;;;;5012025;28;19923;-73
2022/01/03 06:30:13;;;;;;;;;;;11.40;99.10;;;;;;5029416;28;19996;-73
2022/01/03 06:32:39;;;;;;;;;;;11.30;99.00;;;;;;5030152;28;20355;-74
2022/01/03 06:35:04;;;;;;;;;;;11.30;99.10;;;;;;5031505;28;19963;-74
2022/01/03 06:37:30;;;;;;;;;;;11.30;98.90;;;;;;5031229;28;19917;-74
2022/01/03 06:39:55;;;;;;;;;;;11.30;99.00;;;;;;5030607;28;20004;-74
2022/01/03 06:42:21;;;;;;;;;;;11.20;98.90;;;;;;5015010;28;19913;-74
2022/01/03 06:44:48;;;;;;;;;;;11.20;98.80;;;;;;5015906;28;20385;-73
2022/01/03 06:47:14;;;;;;;;;;;11.30;99.00;;;;;;5031990;28;19936;-74
2022/01/03 06:49:40;;;;;;;;;;;11.30;98.90;;;;;;5035342;28;20050;-75
2022/01/03 06:52:06;;;;;;;;;;;11.30;98.90;;;;;;5033931;28;20000;-74
2022/01/03 06:54:33;;;;;;;;;;;11.20;99.10;;;;;;5035360;28;20224;-75
2022/01/03 06:56:59;;;;;;;;;;;11.20;98.90;;;;;;5018126;28;19913;-76
2022/01/03 06:59:24;;;;;;;;;;;11.20;98.90;;;;;;5015188;28;19917;-71
2022/01/03 07:01:50;;;;;;;;;;;11.20;98.70;;;;;;5029634;28;19921;-74
2022/01/03 07:04:16;;;;;;;;;;;11.20;98.70;;;;;;5034548;28;19921;-75
2022/01/03 07:06:41;;;;;;;;;;;11.30;98.60;;;;;;5034695;28;19975;-74
2022/01/03 07:09:07;;;;;;;;;;;11.30;98.50;;;;;;5034370;28;19924;-75
2022/01/03 07:11:33;;;;;;;;;;;11.30;98.30;;;;;;5025629;28;20397;-76
2022/01/03 07:19:27;;;;;;;;;;;11.40;98.40;;;;;;5018079;28;20377;-75
2022/01/03 07:21:52;;;;;;;;;;;11.40;98.20;;;;;;5034539;28;19971;-74
2022/01/03 07:24:18;;;;;;;;;;;11.40;98.20;;;;;;5029574;28;19925;-73
2022/01/03 07:26:43;;;;;;;;;;;11.40;98.40;;;;;;5013716;28;19924;-74
2022/01/03 07:29:09;;;;;;;;;;;11.40;98.20;;;;;;5015474;28;19920;-74
2022/01/03 07:31:34;;;;;;;;;;;11.30;98.10;;;;;;5015036;28;19929;-79
2022/01/03 07:34:00;;;;;;;;;;;11.40;98.10;;;;;;5014854;28;19929;-75
2022/01/03 07:36:27;;;;;;;;;;;11.40;98.30;;;;;;5014669;28;19910;-83
2022/01/03 07:38:52;;;;;;;;;;;11.40;98.40;;;;;;5021245;28;19927;-81
2022/01/03 07:41:19;;;;;;;;;;;11.40;98.00;;;;;;5014346;28;20020;-83
2022/01/03 07:43:45;;;;;;;;;;;11.50;98.10;;;;;;5014565;28;20314;-82
2022/01/03 07:46:11;;;;;;;;;;;11.50;98.00;;;;;;5013294;28;20021;-78
2022/01/03 07:48:36;;;;;;;;;;;11.50;97.80;;;;;;5014892;28;19910;-80
2022/01/03 07:51:02;;;;;;;;;;;11.50;97.80;;;;;;5014022;28;19992;-78
2022/01/03 07:53:27;;;;;;;;;;;11.50;97.70;;;;;;5013796;28;20415;-80
2022/01/03 07:55:53;;;;;;;;;;;11.50;97.80;;;;;;5016137;28;20434;-73
2022/01/03 07:58:18;;;;;;;;;;;11.50;97.70;;;;;;5013236;28;19925;-74
2022/01/03 08:00:44;;;;;;;;;;;11.60;97.70;;;;;;5016350;28;19924;-83
2022/01/03 08:03:11;;;;;;;;;;;11.60;97.90;;;;;;5015807;28;19913;-81
2022/01/03 08:05:36;;;;;;;;;;;11.60;97.50;;;;;;5015053;28;20367;-82
2022/01/03 08:08:03;;;;;;;;;;;11.60;97.80;;;;;;5016008;28;19921;-81
2022/01/03 08:10:29;;;;;;;;;;;11.60;97.60;;;;;;5021140;28;20036;-84
2022/01/03 08:12:54;;;;;;;;;;;11.70;97.50;;;;;;5030679;28;20008;-76
2022/01/03 08:15:21;;;;;;;;;;;11.70;97.50;;;;;;5019599;28;20371;-78
2022/01/03 08:17:49;;;;;;;;;;;11.70;97.70;;;;;;5015057;28;19971;-83
2022/01/03 08:20:14;;;;;;;;;;;11.70;97.60;;;;;;5014103;28;19917;-77
2022/01/03 08:22:40;;;;;;;;;;;11.70;97.60;;;;;;5013663;28;20334;-77
2022/01/03 08:25:06;;;;;;;;;;;11.70;97.90;;;;;;5014754;28;20331;-75
2022/01/03 08:27:31;;;;;;;;;;;11.70;97.80;;;;;;5013390;28;19931;-75
2022/01/03 08:29:57;;;;;;;;;;;11.60;97.80;;;;;;5019980;28;19913;-75
2022/01/03 08:32:22;;;;;;;;;;;11.70;98.00;;;;;;5030435;28;19925;-77
2022/01/03 08:34:48;;;;;;;;;;;11.70;98.00;;;;;;5012406;28;19922;-77
2022/01/03 08:37:14;;;;;;;;;;;11.70;98.00;;;;;;5012483;28;19914;-82
2022/01/03 08:39:39;;;;;;;;;;;11.70;97.90;;;;;;5019772;28;19963;-80
2022/01/03 08:42:05;;;;;;;;;;;11.70;97.90;;;;;;5030544;28;19913;-81
2022/01/03 08:44:30;;;;;;;;;;;11.60;97.90;;;;;;5025415;28;20371;-80
2022/01/03 08:46:56;;;;;;;;;;;11.70;97.80;;;;;;5024596;28;19917;-75
2022/01/03 08:49:21;;;;;;;;;;;11.70;97.70;;;;;;5033449;28;19925;-84
2022/01/03 08:51:46;;;;;;;;;;;11.70;97.70;;;;;;5033527;28;19971;-81
2022/01/03 08:54:12;;;;;;;;;;;11.70;97.60;;;;;;5015062;28;19913;-82
2022/01/03 08:56:38;;;;;;;;;;;11.80;97.50;;;;;;5033642;28;19918;-84
2022/01/03 08:59:04;;;;;;;;;;;11.90;97.50;;;;;;5033007;28;19952;-76
2022/01/03 09:01:29;;;;;;;;;;;11.80;97.30;;;;;;5031168;28;20015;-74
2022/01/03 09:03:55;;;;;;;;;;;11.80;97.30;;;;;;5027483;28;20230;-74
2022/01/03 09:06:21;;;;;;;;;;;11.90;97.40;;;;;;5032937;28;19936;-81
2022/01/03 09:08:47;;;;;;;;;;;11.80;97.20;;;;;;5030417;28;20405;-81
2022/01/03 09:11:13;;;;;;;;;;;11.80;97.10;;;;;;5021218;28;20243;-83
2022/01/03 09:13:38;;;;;;;;;;;11.90;97.20;;;;;;5033807;28;20115;-81
2022/01/03 09:16:07;;;;;;;;;;;11.90;97.00;;;;;;5032676;28;19913;-82
2022/01/03 09:18:37;;;;;;;;;;;11.80;97.00;;;;;;5032256;28;19913;-80
2022/01/03 09:21:02;;;;;;;;;;;11.90;97.00;;;;;;5022032;28;20339;-79
2022/01/03 09:23:32;;;;;;;;;;;11.90;96.80;;;;;;5013217;28;19928;-80
2022/01/03 09:28:56;;;;;;;;;;;12.00;96.70;;;;;;5014557;28;20310;-77
2022/01/03 09:31:21;;;;;;;;;;;12.00;96.50;;;;;;5020203;28;19932;-80
2022/01/03 09:33:47;;;;;;;;;;;12.00;96.50;;;;;;5034273;28;19933;-80
2022/01/03 09:36:13;;;;;;;;;;;12.10;96.60;;;;;;5033365;28;19909;-78
2022/01/03 09:38:38;;;;;;;;;;;12.20;96.30;;;;;;5034219;28;19996;-82
2022/01/03 09:41:05;;;;;;;;;;;12.20;96.30;;;;;;5029252;28;19913;-80
2022/01/03 09:43:33;;;;;;;;;;;12.20;96.30;;;;;;5016256;28;20307;-84
2022/01/03 09:46:00;;;;;;;;;;;12.20;96.30;;;;;;5015821;28;19921;-84
2022/01/03 09:48:26;;;;;;;;;;;12.20;96.30;;;;;;5015364;28;19909;-82
2022/01/03 09:50:52;;;;;;;;;;;12.30;96.30;;;;;;5015607;28;19963;-82
2022/01/03 09:53:18;;;;;;;;;;;12.30;96.10;;;;;;5013790;28;19996;-81
2022/01/03 09:55:44;;;;;;;;;;;12.20;96.10;;;;;;5015355;28;19913;-80
2022/01/03 09:58:14;;;;;;;;;;;12.20;95.90;;;;;;5029722;28;19927;-80
2022/01/03 10:00:40;;;;;;;;;;;12.30;95.80;;;;;;5032456;28;19939;-81
2022/01/03 10:03:06;;;;;;;;;;;12.20;96.00;;;;;;5032601;28;20308;-82
2022/01/03 10:05:32;;;;;;;;;;;12.20;96.00;;;;;;5030222;28;19975;-82
2022/01/03 10:07:57;;;;;;;;;;;12.20;96.00;;;;;;5032879;28;19928;-84
2022/01/03 10:10:24;;;;;;;;;;;12.20;96.10;;;;;;5032362;28;19939;-84
2022/01/03 10:12:50;;;;;;;;;;;12.20;95.90;;;;;;5016416;28;19952;-79
2022/01/03 10:15:15;;;;;;;;;;;12.20;95.90;;;;;;5014892;28;20251;-82
2022/01/03 10:17:41;;;;;;;;;;;12.20;95.90;;;;;;5027163;28;19923;-79
2022/01/03 10:20:10;;;;;;;;;;;12.30;96.00;;;;;;5037385;28;19917;-80
2022/01/03 10:22:36;;;;;;;;;;;12.40;96.00;;;;;;5036318;28;19913;-82
2022/01/03 10:25:09;;;;;;;;;;;12.50;95.70;;;;;;5036387;28;20354;-80
2022/01/03 10:27:48;;;;;;;;;;;12.50;95.40;;;;;;5030029;28;19913;-85
2022/01/03 10:30:27;;;;;;;;;;;12.50;95.40;;;;;;5018969;28;19920;-82
2022/01/03 10:32:53;;;;;;;;;;;12.50;95.30;;;;;;5016537;28;19925;-84
2022/01/03 10:35:19;;;;;;;;;;;12.60;95.40;;;;;;5018021;28;19924;-85
2022/01/03 10:37:46;;;;;;;;;;;12.60;95.30;;;;;;5017802;28;19937;-85
2022/01/03 10:40:27;;;;;;;;;;;12.50;95.40;;;;;;5030329;28;20004;-76
2022/01/03 10:42:53;;;;;;;;;;;12.50;95.30;;;;;;5021165;28;19917;-75
2022/01/03 10:45:32;;;;;;;;;;;12.60;95.30;;;;;;5026825;28;19917;-78
2022/01/03 10:47:59;;;;;;;;;;;12.50;95.10;;;;;;5033948;28;19917;-79
2022/01/03 10:50:25;;;;;;;;;;;12.60;94.90;;;;;;5034669;28;19928;-78
2022/01/03 10:52:51;;;;;;;;;;;12.60;94.80;;;;;;5034368;28;19917;-77
2022/01/03 10:55:19;;;;;;;;;;;12.60;94.90;;;;;;5035163;28;19913;-80
2022/01/03 10:57:52;;;;;;;;;;;12.60;94.90;;;;;;5022200;28;19924;-79
2022/01/03 11:00:31;;;;;;;;;;;12.70;94.70;;;;;;5025073;28;19913;-78
2022/01/03 11:03:07;;;;;;;;;;;12.70;94.50;;;;;;5033895;28;20382;-78
2022/01/03 11:05:38;;;;;;;;;;;12.90;94.80;;;;;;5029421;28;20328;-78
2022/01/03 11:10:44;;;;;;;;;;;13.00;94.20;;;;;;5015155;28;19913;-75
2022/01/03 11:13:10;;;;;;;;;;;13.00;94.30;;;;;;5014750;28;19933;-74
2022/01/03 11:15:36;;;;;;;;;;;13.00;94.10;;;;;;5011870;28;20260;-75
2022/01/03 11:18:07;;;;;;;;;;;13.10;94.30;;;;;;5015160;28;19909;-73
2022/01/03 11:20:33;;;;;;;;;;;13.00;94.10;;;;;;5015202;28;19917;-73
2022/01/03 11:22:59;;;;;;;;;;;13.00;94.00;;;;;;5015990;28;19995;-74
2022/01/03 11:25:29;;;;;;;;;;;13.10;94.30;;;;;;5013754;28;19921;-74
2022/01/03 11:27:55;;;;;;;;;;;13.10;94.10;;;;;;5013742;28;20285;-73
2022/01/03 11:30:20;;;;;;;;;;;13.20;94.40;;;;;;5011083;28;20076;-73
2022/01/03 11:32:48;;;;;;;;;;;13.30;94.10;;;;;;5006705;28;20376;-73
2022/01/03 11:35:14;;;;;;;;;;;13.40;94.30;;;;;;5013090;28;19917;-72
2022/01/03 11:37:43;;;;;;;;;;;13.50;94.00;;;;;;5012886;28;19991;-72
2022/01/03 11:40:11;;;;;;;;;;;13.60;93.90;;;;;;5013953;28;21534;-72
2022/01/03 11:42:37;;;;;;;;;;;13.70;93.30;;;;;;5014413;28;19909;-72
2022/01/03 11:45:02;;;;;;;;;;;14.00;93.30;;;;;;5014522;28;19921;-78
2022/01/03 11:47:28;;;;;;;;;;;14.40;93.10;;;;;;5014254;28;19957;-77
2022/01/03 11:49:54;;;;;;;;;;;14.50;92.40;;;;;;5014312;28;20331;-76
2022/01/03 11:52:20;;;;;;;;;;;14.30;92.20;;;;;;5020373;28;19931;-78
2022/01/03 11:54:46;;;;;;;;;;;14.40;92.30;;;;;;5034103;28;19971;-75
2022/01/03 11:57:40;;;;;;;;;;;14.20;92.10;;;;;;5033638;28;20355;-76
2022/01/03 12:05:49;;;;;;;;;;;13.90;92.70;;;;;;5014252;28;19933;-72
2022/01/03 12:08:21;;;;;;;;;;;13.90;92.80;;;;;;5013269;28;19929;-72
2022/01/03 12:10:46;;;;;;;;;;;14.10;93.10;;;;;;5010047;28;19914;-75
2022/01/03 12:13:12;;;;;;;;;;;14.10;92.90;;;;;;5018383;28;20303;-74
2022/01/03 12:15:41;;;;;;;;;;;14.10;93.00;;;;;;5033158;28;19909;-74
2022/01/03 12:18:26;;;;;;;;;;;14.10;92.90;;;;;;5031602;28;19920;-75
2022/01/03 12:20:51;;;;;;;;;;;14.00;92.60;;;;;;5027778;28;19921;-76
2022/01/03 12:23:35;;;;;;;;;;;14.00;92.70;;;;;;5014290;28;20216;-74
2022/01/03 12:26:11;;;;;;;;;;;13.90;92.50;;;;;;5026454;28;19921;-75
2022/01/03 12:28:56;;;;;;;;;;;13.90;92.50;;;;;;5012937;28;19913;-73
2022/01/03 12:31:21;;;;;;;;;;;13.90;92.40;;;;;;5013118;28;19929;-74
2022/01/03 12:34:06;;;;;;;;;;;13.80;92.40;;;;;;5012823;28;20570;-71
2022/01/03 12:36:31;;;;;;;;;;;13.80;92.60;;;;;;5013595;28;20012;-72
2022/01/03 12:39:07;;;;;;;;;;;13.80;92.40;;;;;;5013387;28;19995;-72
2022/01/03 12:41:52;;;;;;;;;;;13.80;92.40;;;;;;5014229;28;20209;-75
2022/01/03 12:44:54;;;;;;;;;;;13.80;92.40;;;;;;5013287;28;19924;-71
2022/01/03 12:47:21;;;;;;;;;;;13.80;92.40;;;;;;5012797;28;20344;-77
2022/01/03 12:50:06;;;;;;;;;;;13.80;92.30;;;;;;5018309;28;19924;-77
2022/01/03 12:52:39;;;;;;;;;;;13.70;92.50;;;;;;5012885;28;20016;-75
2022/01/03 12:55:04;;;;;;;;;;;13.80;92.50;;;;;;5013295;28;19917;-76
2022/01/03 12:57:31;;;;;;;;;;;13.80;92.40;;;;;;5011896;28;19914;-71
2022/01/03 12:59:56;;;;;;;;;;;13.80;92.40;;;;;;5030934;28;19913;-75
2022/01/03 13:02:28;;;;;;;;;;;13.70;92.60;;;;;;5032210;28;19992;-76
2022/01/03 13:04:54;;;;;;;;;;;13.60;92.60;;;;;;5027746;28;19956;-76
2022/01/03 13:07:23;;;;;;;;;;;13.80;92.50;;;;;;5013087;28;19979;-76
2022/01/03 13:09:49;;;;;;;;;;;13.90;92.40;;;;;;5011951;28;19914;-77
2022/01/03 13:12:15;;;;;;;;;;;13.80;92.20;;;;;;5029782;28;20305;-74
2022/01/03 13:14:40;;;;;;;;;;;13.80;92.60;;;;;;5025724;28;19921;-77
2022/01/03 13:17:06;;;;;;;;;;;13.70;92.30;;;;;;5012699;28;19914;-76
2022/01/03 13:19:35;;;;;;;;;;;13.80;92.10;;;;;;5012588;28;19985;-74
2022/01/03 13:22:08;;;;;;;;;;;13.60;91.90;;;;;;5013113;28;19917;-75
2022/01/03 13:24:35;;;;;;;;;;;13.60;91.90;;;;;;5011221;28;20359;-76
2022/01/03 13:27:15;;;;;;;;;;;13.60;92.00;;;;;;5021941;28;19917;-74
2022/01/03 13:29:51;;;;;;;;;;;13.70;92.00;;;;;;5031291;28;20309;-82
2022/01/03 13:32:21;;;;;;;;;;;13.70;91.70;;;;;;5028858;28;19921;-75
2022/01/03 13:34:48;;;;;;;;;;;13.60;91.70;;;;;;5031355;28;20363;-75
2022/01/03 13:37:14;;;;;;;;;;;13.60;91.70;;;;;;5030980;28;19923;-81
2022/01/03 13:39:40;;;;;;;;;;;13.50;91.60;;;;;;5014932;28;19909;-80
2022/01/03 13:42:11;;;;;;;;;;;13.60;91.60;;;;;;5027231;28;20016;-84
2022/01/03 13:45:00;;;;;;;;;;;13.40;91.20;;;;;;5033592;28;19921;-77
2022/01/03 13:50:26;;;;;;;;;;;13.30;91.30;;;;;;5031931;28;19924;-80
2022/01/03 13:52:52;;;;;;;;;;;13.30;91.10;;;;;;5014878;28;20255;-79
2022/01/03 13:55:19;;;;;;;;;;;13.20;91.40;;;;;;5012291;28;19914;-81
2022/01/03 13:57:46;;;;;;;;;;;13.20;91.30;;;;;;5011518;28;19988;-72
2022/01/03 14:00:16;;;;;;;;;;;13.20;91.30;;;;;;5012336;28;19920;-76
2022/01/03 14:02:42;;;;;;;;;;;13.10;91.30;;;;;;5011146;28;20350;-78
2022/01/03 14:05:08;;;;;;;;;;;13.00;91.40;;;;;;5013815;28;19921;-74
2022/01/03 14:07:35;;;;;;;;;;;12.90;91.50;;;;;;5030547;28;19913;-72
2022/01/03 14:10:01;;;;;;;;;;;12.90;91.40;;;;;;5032234;28;19917;-77
2022/01/03 14:12:28;;;;;;;;;;;12.90;91.60;;;;;;5031991;28;19916;-75
2022/01/03 14:14:55;;;;;;;;;;;13.00;91.60;;;;;;5032416;28;19905;-77
2022/01/03 14:17:21;;;;;;;;;;;12.80;91.60;;;;;;5025193;28;19925;-78
2022/01/03 14:19:57;;;;;;;;;;;12.80;91.70;;;;;;5024680;28;20420;-76
2022/01/03 14:22:22;;;;;;;;;;;12.70;91.50;;;;;;5029109;28;19924;-78
2022/01/03 14:25:14;;;;;;;;;;;12.60;91.80;;;;;;5031513;28;20362;-76
2022/01/03 14:27:41;;;;;;;;;;;12.70;92.00;;;;;;5031808;28;19921;-88
2022/01/03 14:30:27;;;;;;;;;;;12.60;92.00;;;;;;5033107;28;19964;-83
2022/01/03 14:32:56;;;;;;;;;;;12.60;91.90;;;;;;5014049;28;19925;-80
2022/01/03 14:35:41;;;;;;;;;;;12.50;92.00;;;;;;5012539;28;20250;-81
2022/01/03 14:38:07;;;;;;;;;;;12.50;92.10;;;;;;5011422;28;20311;-84
2022/01/03 14:40:46;;;;;;;;;;;12.40;92.00;;;;;;5012521;28;19966;-82
2022/01/03 14:43:18;;;;;;;;;;;12.40;92.10;;;;;;5012476;28;20063;-83